Time;durP1;ratioP1;P1;durP2;ratioP2;P2;SDS_P1;SDS_P2;PMS_P1;PMS_P2;Temp;Humidity;BMP_temperature;BMP_pressure;BME280_temperature;BME280_humidity;BME280_pressure;Samples;Min_cycle;Max_cycle;Signal;HPM_P1;HPM_P2
2022/01/06 00:00:28;;;;;;;17.33;3.58;;;;;;;4.66;100.00;100972.16;5040493;28;20126;-70
2022/01/06 00:02:56;;;;;;;1.90;1.25;;;;;;;4.58;100.00;100959.41;5043224;28;20084;-68
2022/01/06 00:05:23;;;;;;;19.60;3.50;;;;;;;4.62;100.00;100968.50;5048662;28;20112;-69
2022/01/06 00:07:49;;;;;;;25.27;4.13;;;;;;;4.56;100.00;100969.94;5050105;28;20057;-69
2022/01/06 00:10:16;;;;;;;5.47;1.65;;;;;;;4.52;100.00;100991.75;5050116;28;20048;-69
2022/01/06 00:13:01;;;;;;;15.48;2.65;;;;;;;4.48;100.00;100977.16;5034919;28;20052;-71
2022/01/06 00:23:39;;;;;;;27.45;5.00;;;;;;;4.44;100.00;100994.63;5046344;28;20127;-69
2022/01/06 00:26:07;;;;;;;16.80;4.30;;;;;;;4.36;100.00;100993.63;5039533;28;20099;-68
2022/01/06 00:28:34;;;;;;;13.65;3.05;;;;;;;4.34;100.00;100989.66;5041946;28;20144;-68
2022/01/06 00:31:01;;;;;;;17.73;4.22;;;;;;;4.35;100.00;100994.78;5044891;28;20140;-70
2022/01/06 00:33:30;;;;;;;17.92;3.83;;;;;;;4.30;100.00;101006.00;5035214;28;20370;-69
2022/01/06 00:35:57;;;;;;;15.70;3.05;;;;;;;4.27;100.00;101008.63;5045904;28;20144;-67
2022/01/06 00:38:25;;;;;;;13.65;3.03;;;;;;;4.26;100.00;101012.53;5049466;28;20627;-70
2022/01/06 00:40:53;;;;;;;20.00;3.40;;;;;;;4.23;100.00;101008.53;5047185;28;20067;-69
2022/01/06 00:43:20;;;;;;;7.63;2.00;;;;;;;4.17;100.00;101007.19;5039377;28;20168;-69
2022/01/06 00:45:46;;;;;;;27.75;4.18;;;;;;;4.23;100.00;101008.53;5043702;28;20061;-70
2022/01/06 00:48:13;;;;;;;3.03;0.88;;;;;;;4.15;100.00;101008.69;5038167;28;20118;-70
2022/01/06 00:50:42;;;;;;;11.30;2.15;;;;;;;4.14;100.00;101013.34;5046555;28;20136;-70
2022/01/06 00:53:09;;;;;;;8.68;1.42;;;;;;;4.08;100.00;101020.22;5042047;28;20081;-68
2022/01/06 00:55:37;;;;;;;21.15;3.78;;;;;;;4.09;100.00;101023.75;5038804;28;20041;-69
2022/01/06 00:58:04;;;;;;;21.30;3.33;;;;;;;4.03;100.00;101023.22;5028712;28;20139;-68
2022/01/06 01:00:39;;;;;;;19.63;3.53;;;;;;;4.03;100.00;101028.69;5043166;28;20053;-69
2022/01/06 01:03:11;;;;;;;8.93;3.17;;;;;;;4.02;100.00;101020.81;5039827;28;20053;-69
2022/01/06 01:05:39;;;;;;;19.20;3.70;;;;;;;4.04;100.00;101029.47;5047774;28;20059;-69
2022/01/06 01:08:05;;;;;;;22.00;4.15;;;;;;;4.05;100.00;101023.66;5045440;28;20577;-69
2022/01/06 01:10:32;;;;;;;20.65;4.72;;;;;;;4.05;100.00;101036.56;5043866;28;20506;-69
2022/01/06 01:12:58;;;;;;;10.27;3.28;;;;;;;4.03;100.00;101036.91;5038171;28;20171;-70
2022/01/06 01:15:27;;;;;;;8.55;2.85;;;;;;;4.02;100.00;101034.50;5037162;28;20505;-69
2022/01/06 01:17:54;;;;;;;24.67;4.75;;;;;;;4.06;100.00;101028.00;5045317;28;20060;-70
2022/01/06 01:20:21;;;;;;;21.23;4.03;;;;;;;4.08;100.00;101033.91;5039132;28;20049;-69
2022/01/06 01:22:48;;;;;;;21.23;4.53;;;;;;;4.07;100.00;101034.25;5038328;28;20135;-70
2022/01/06 01:25:15;;;;;;;31.63;5.20;;;;;;;4.11;100.00;101046.09;5033165;28;20077;-69
2022/01/06 01:27:43;;;;;;;21.42;4.45;;;;;;;4.18;100.00;101041.63;5046526;28;20055;-71
2022/01/06 01:30:14;;;;;;;17.30;4.10;;;;;;;4.18;100.00;101052.59;5032487;28;20045;-70
2022/01/06 01:32:49;;;;;;;29.95;4.68;;;;;;;4.22;100.00;101049.97;5037548;28;20497;-68
2022/01/06 01:35:16;;;;;;;;;;;;;;;4.22;100.00;101061.72;5039525;28;20128;-71
2022/01/06 01:37:42;;;;;;;22.65;3.88;;;;;;;4.24;100.00;101064.91;5046460;28;20381;-69
2022/01/06 01:40:10;;;;;;;24.02;5.93;;;;;;;4.28;100.00;101048.56;5042826;28;20131;-69
2022/01/06 01:42:37;;;;;;;10.25;2.30;;;;;;;4.28;100.00;101065.81;5045738;28;20088;-68
2022/01/06 01:45:06;;;;;;;23.17;3.72;;;;;;;4.34;100.00;101061.69;5044827;28;20056;-69
2022/01/06 01:48:09;;;;;;;23.35;3.92;;;;;;;4.33;100.00;101068.31;5038904;28;20055;-69
2022/01/06 01:50:25;;;;;;;21.38;4.38;;;;;;;4.44;100.00;101077.66;5035016;28;20513;-69
2022/01/06 01:52:54;;;;;;;17.67;3.45;;;;;;;4.49;100.00;101080.13;5041451;28;20063;-70
2022/01/06 01:55:27;;;;;;;17.83;4.85;;;;;;;4.57;100.00;101079.19;5043254;28;20131;-69
2022/01/06 01:57:55;;;;;;;14.65;2.28;;;;;;;4.57;100.00;101083.88;5037416;28;20111;-70
2022/01/06 02:00:26;;;;;;;29.80;4.20;;;;;;;4.65;100.00;101072.75;5041921;28;20080;-69
2022/01/06 02:02:53;;;;;;;28.42;4.03;;;;;;;4.68;100.00;101077.56;5045736;28;20540;-69
2022/01/06 02:05:26;;;;;;;31.15;4.93;;;;;;;4.68;100.00;101069.31;5052957;28;20144;-70
2022/01/06 02:07:54;;;;;;;18.60;3.65;;;;;;;4.64;100.00;101075.84;5033727;28;20053;-70
2022/01/06 02:10:21;;;;;;;24.75;4.05;;;;;;;4.62;100.00;101078.94;5039960;28;20110;-70
2022/01/06 02:12:50;;;;;;;20.70;4.13;;;;;;;4.62;100.00;101084.41;5032671;28;20081;-69
2022/01/06 02:15:17;;;;;;;24.67;3.78;;;;;;;4.57;100.00;101087.41;5045605;28;20048;-69
2022/01/06 02:17:44;;;;;;;17.58;2.67;;;;;;;4.55;100.00;101086.97;5036671;28;20054;-70
2022/01/06 02:20:13;;;;;;;11.13;3.20;;;;;;;4.54;100.00;101084.56;5046805;28;20398;-69
2022/01/06 02:22:40;;;;;;;21.50;3.60;;;;;;;4.58;100.00;101089.00;5043396;28;20045;-69
2022/01/06 02:25:18;;;;;;;17.63;3.95;;;;;;;4.54;100.00;101092.78;5041401;28;20165;-69
2022/01/06 02:27:48;;;;;;;17.90;3.60;;;;;;;4.54;100.00;101092.78;5040590;28;20053;-69
2022/01/06 02:30:15;;;;;;;17.30;2.28;;;;;;;4.56;100.00;101087.75;5044044;28;20759;-70
2022/01/06 02:32:42;;;;;;;27.80;5.28;;;;;;;4.61;100.00;101093.78;5044708;28;20081;-70
2022/01/06 02:35:15;;;;;;;13.48;2.97;;;;;;;4.70;100.00;101099.13;5041184;28;20049;-70
2022/01/06 02:37:42;;;;;;;14.30;2.90;;;;;;;4.72;100.00;101089.41;5032493;28;20133;-70
2022/01/06 02:40:11;;;;;;;22.92;3.88;;;;;;;4.75;100.00;101087.91;5039041;28;20049;-69
2022/01/06 02:42:48;;;;;;;23.60;4.97;;;;;;;4.77;100.00;101097.41;5028994;28;20051;-70
2022/01/06 02:45:16;;;;;;;15.93;3.00;;;;;;;4.77;100.00;101107.56;5045607;28;20056;-70
2022/01/06 02:47:46;;;;;;;21.83;2.95;;;;;;;4.73;100.00;101101.19;5046240;28;20052;-69
2022/01/06 02:50:13;;;;;;;21.75;3.58;;;;;;;4.72;100.00;101111.34;5045460;28;20138;-71
2022/01/06 02:52:40;;;;;;;17.27;2.80;;;;;;;4.70;100.00;101113.63;5042347;28;20049;-70
2022/01/06 02:55:09;;;;;;;12.85;2.30;;;;;;;4.66;100.00;101107.25;5042091;28;20136;-70
2022/01/06 02:57:37;;;;;;;27.02;4.13;;;;;;;4.69;100.00;101106.53;5038779;28;20045;-69
2022/01/06 03:00:06;;;;;;;22.55;4.00;;;;;;;4.64;100.00;101109.53;5039302;28;20059;-69
2022/01/06 03:02:32;;;;;;;24.02;3.92;;;;;;;4.67;100.00;101119.00;5032003;28;20128;-69
2022/01/06 03:04:59;;;;;;;33.63;7.30;;;;;;;4.62;100.00;101116.50;5036601;28;20155;-70
2022/01/06 03:07:28;;;;;;;22.52;4.68;;;;;;;4.56;100.00;101134.34;5046303;28;20049;-69
2022/01/06 03:09:56;;;;;;;24.35;3.83;;;;;;;4.51;100.00;101140.06;5041550;28;20144;-69
2022/01/06 03:12:32;;;;;;;25.25;4.65;;;;;;;4.46;100.00;101140.31;5041648;28;20049;-70
2022/01/06 03:15:00;;;;;;;29.95;4.25;;;;;;;4.41;100.00;101137.81;5046063;28;20056;-70
2022/01/06 03:17:27;;;;;;;21.17;4.10;;;;;;;4.40;100.00;101137.03;5036135;28;20157;-71
2022/01/06 03:19:53;;;;;;;16.27;4.85;;;;;;;4.32;100.00;101137.16;5041521;28;20850;-69
2022/01/06 03:22:20;;;;;;;25.25;4.50;;;;;;;4.32;100.00;101146.16;5046670;28;20155;-68
2022/01/06 03:24:47;;;;;;;20.40;5.15;;;;;;;4.28;100.00;101150.72;5043332;28;20045;-69
2022/01/06 03:27:13;;;;;;;21.30;4.10;;;;;;;4.25;100.00;101156.09;5044073;28;20137;-68
2022/01/06 03:29:40;;;;;;;23.23;4.22;;;;;;;4.21;100.00;101149.69;5027944;28;20510;-69
2022/01/06 03:32:06;;;;;;;20.40;4.00;;;;;;;4.17;100.00;101148.78;5044002;28;20140;-69
2022/01/06 03:34:33;;;;;;;21.38;4.22;;;;;;;4.08;100.00;101151.66;5049435;28;20080;-68
2022/01/06 03:37:02;;;;;;;26.00;3.53;;;;;;;4.07;100.00;101152.81;5046551;28;20071;-69
2022/01/06 03:39:29;;;;;;;34.28;5.32;;;;;;;4.03;100.00;101154.63;5042371;28;20596;-69
2022/01/06 03:41:55;;;;;;;15.02;3.38;;;;;;;3.96;100.00;101159.88;5045449;28;20059;-69
2022/01/06 03:44:22;;;;;;;19.85;4.18;;;;;;;3.90;100.00;101154.97;5049100;28;20128;-69
2022/01/06 03:46:49;;;;;;;18.55;4.10;;;;;;;3.84;100.00;101170.81;5038289;28;20067;-69
2022/01/06 03:49:15;;;;;;;23.35;5.05;;;;;;;3.81;100.00;101166.03;5049860;28;20084;-69
2022/01/06 03:51:42;;;;;;;8.65;2.47;;;;;;;3.72;100.00;101168.09;5046763;28;20450;-70
2022/01/06 03:54:08;;;;;;;23.00;4.80;;;;;;;3.73;100.00;101172.41;5048694;28;20049;-69
2022/01/06 03:56:35;;;;;;;20.60;4.15;;;;;;;3.71;100.00;101171.94;5035506;28;20148;-70
2022/01/06 03:59:01;;;;;;;27.63;4.32;;;;;;;3.73;100.00;101174.34;5040584;28;20049;-70
2022/01/06 04:01:28;;;;;;;25.63;4.35;;;;;;;3.71;100.00;101169.22;5032286;28;20059;-69
2022/01/06 04:03:55;;;;;;;16.75;4.13;;;;;;;3.67;100.00;101162.00;5050458;28;20057;-70
2022/01/06 04:06:21;;;;;;;22.70;5.15;;;;;;;3.69;100.00;101170.69;5038773;28;20132;-70
2022/01/06 04:08:48;;;;;;;21.85;4.53;;;;;;;3.66;100.00;101177.66;5034549;28;20508;-69
2022/01/06 04:11:15;;;;;;;21.38;4.57;;;;;;;3.66;100.00;101180.38;5041499;28;20164;-69
2022/01/06 04:13:42;;;;;;;21.95;5.28;;;;;;;3.63;100.00;101186.53;5049310;28;20334;-69
2022/01/06 04:16:11;;;;;;;22.77;4.65;;;;;;;3.69;100.00;101179.72;5041642;28;20263;-68
2022/01/06 04:18:37;;;;;;;25.92;4.70;;;;;;;3.65;100.00;101189.72;5041571;28;20053;-70
2022/01/06 04:21:05;;;;;;;21.25;4.22;;;;;;;3.66;100.00;101193.25;5043968;28;20057;-69
2022/01/06 04:23:31;;;;;;;21.88;4.68;;;;;;;3.62;100.00;101198.63;5034023;28;20049;-69
2022/01/06 04:25:58;;;;;;;22.00;3.30;;;;;;;3.62;100.00;101200.56;5049271;28;20450;-71
2022/01/06 04:28:24;;;;;;;22.75;4.13;;;;;;;3.68;100.00;101201.94;5042963;28;20053;-69
2022/01/06 04:30:51;;;;;;;23.88;5.05;;;;;;;3.68;100.00;101199.22;5042446;28;20132;-69
2022/01/06 04:33:18;;;;;;;25.48;3.90;;;;;;;3.66;100.00;101213.22;5045846;28;20136;-70
2022/01/06 04:35:44;;;;;;;26.70;4.53;;;;;;;3.61;100.00;101209.91;5041656;28;20053;-70
2022/01/06 04:38:12;;;;;;;25.08;5.07;;;;;;;3.61;100.00;101207.19;5042379;28;20049;-69
2022/01/06 04:40:38;;;;;;;22.40;3.90;;;;;;;3.52;100.00;101204.53;5045688;28;20049;-69
2022/01/06 04:43:06;;;;;;;19.92;3.88;;;;;;;3.48;100.00;101206.31;5045109;28;20080;-69
2022/01/06 04:45:32;;;;;;;19.35;4.00;;;;;;;3.44;100.00;101208.13;5044677;28;20167;-70
2022/01/06 04:47:59;;;;;;;27.75;4.20;;;;;;;3.49;100.00;101220.81;5033849;28;20080;-69
2022/01/06 04:50:26;;;;;;;17.50;3.90;;;;;;;3.42;100.00;101217.81;5041334;28;20045;-69
2022/01/06 04:52:52;;;;;;;22.90;3.78;;;;;;;3.41;100.00;101227.19;5045033;28;20049;-69
2022/01/06 04:55:19;;;;;;;24.50;4.68;;;;;;;3.34;100.00;101230.44;5048654;28;20859;-70
2022/01/06 04:57:45;;;;;;;27.08;4.18;;;;;;;3.31;100.00;101227.59;5041614;28;20140;-69
2022/01/06 05:00:12;;;;;;;24.05;4.18;;;;;;;3.22;100.00;101235.88;5045178;28;20136;-69
2022/01/06 05:02:39;;;;;;;20.95;4.15;;;;;;;3.18;100.00;101236.88;5046164;28;20362;-69
2022/01/06 05:05:06;;;;;;;23.70;4.22;;;;;;;3.13;100.00;101234.38;5046139;28;20130;-71
2022/01/06 05:07:32;;;;;;;18.92;3.70;;;;;;;3.13;100.00;101231.63;5037215;28;20084;-68
2022/01/06 05:09:59;;;;;;;21.10;3.70;;;;;;;3.15;100.00;101249.28;5045145;28;20518;-68
2022/01/06 05:12:25;;;;;;;9.27;2.70;;;;;;;3.08;100.00;101243.56;5041266;28;20053;-70
2022/01/06 05:14:52;;;;;;;16.95;3.55;;;;;;;3.02;100.00;101238.63;5031965;28;20091;-69
2022/01/06 05:17:19;;;;;;;25.40;3.53;;;;;;;3.02;100.00;101244.91;5041534;28;20047;-69
2022/01/06 05:19:45;;;;;;;21.52;2.95;;;;;;;3.00;100.00;101257.31;5030733;28;20049;-69
2022/01/06 05:22:12;;;;;;;21.08;4.10;;;;;;;3.00;100.00;101251.84;5044335;28;20654;-69
2022/01/06 05:24:38;;;;;;;21.08;3.47;;;;;;;3.00;100.00;101257.31;5044704;28;20048;-67
2022/01/06 05:27:09;;;;;;;20.90;4.30;;;;;;;2.95;100.00;101257.50;5034958;28;20127;-69
2022/01/06 05:29:37;;;;;;;24.88;3.53;;;;;;;2.94;100.00;101267.66;5045444;28;20148;-68
2022/01/06 05:32:04;;;;;;;21.80;3.78;;;;;;;2.91;100.00;101262.03;5040107;28;20526;-71
2022/01/06 05:34:30;;;;;;;18.95;3.78;;;;;;;2.85;100.00;101260.63;5046497;28;20810;-70
2022/01/06 05:36:57;;;;;;;22.20;3.65;;;;;;;2.81;100.00;101271.44;5046192;28;20339;-69
2022/01/06 05:39:23;;;;;;;13.50;3.50;;;;;;;2.77;100.00;101270.50;5043402;28;20057;-69
2022/01/06 05:41:50;;;;;;;24.13;4.18;;;;;;;2.75;100.00;101272.75;5048038;28;20044;-70
2022/01/06 05:44:16;;;;;;;22.27;4.30;;;;;;;2.73;100.00;101292.22;5044879;28;20044;-69
2022/01/06 05:46:43;;;;;;;17.70;3.90;;;;;;;2.65;100.00;101290.34;5041458;28;20075;-69
2022/01/06 05:49:09;;;;;;;23.08;3.67;;;;;;;2.62;100.00;101292.91;5027302;28;20053;-70
2022/01/06 05:51:36;;;;;;;28.30;4.35;;;;;;;2.61;100.00;101288.59;5040307;28;20044;-68
2022/01/06 05:54:02;;;;;;;18.77;3.72;;;;;;;2.63;100.00;101297.25;5047916;28;20505;-70
2022/01/06 05:56:29;;;;;;;18.23;3.65;;;;;;;2.59;100.00;101296.31;5042583;28;20084;-70
2022/01/06 05:58:55;;;;;;;18.20;4.75;;;;;;;2.62;100.00;101310.13;5043494;28;20129;-69
2022/01/06 06:01:22;;;;;;;24.90;3.50;;;;;;;2.61;100.00;101311.22;5036630;28;20053;-69
2022/01/06 06:03:49;;;;;;;21.40;3.75;;;;;;;2.65;100.00;101314.94;5044477;28;20053;-69
2022/01/06 06:06:16;;;;;;;24.73;4.05;;;;;;;2.67;100.00;101320.06;5039337;28;20057;-68
2022/01/06 06:08:43;;;;;;;22.35;4.80;;;;;;;2.69;100.00;101309.59;5045800;28;20622;-68
2022/01/06 06:11:09;;;;;;;21.63;4.13;;;;;;;2.72;100.00;101315.22;5044000;28;20374;-69
2022/01/06 06:13:36;;;;;;;21.27;3.95;;;;;;;2.72;100.00;101314.41;5034874;28;20053;-69
2022/01/06 06:16:02;;;;;;;25.77;4.90;;;;;;;2.70;100.00;101322.91;5044100;28;20064;-69
2022/01/06 06:18:29;;;;;;;19.88;3.83;;;;;;;2.68;100.00;101325.19;5053901;28;20127;-70
2022/01/06 06:20:56;;;;;;;20.85;3.13;;;;;;;2.66;100.00;101318.44;5046172;28;20071;-69
2022/01/06 06:23:22;;;;;;;19.27;3.67;;;;;;;2.64;100.00;101331.66;5039579;28;20045;-69
2022/01/06 06:25:49;;;;;;;15.57;3.95;;;;;;;2.61;100.00;101335.03;5045991;28;20160;-69
2022/01/06 06:28:15;;;;;;;21.52;4.78;;;;;;;2.63;100.00;101340.97;5046296;28;20812;-69
2022/01/06 06:30:42;;;;;;;18.75;5.32;;;;;;;2.65;100.00;101341.44;5043310;28;20644;-69
2022/01/06 06:33:08;;;;;;;24.45;4.70;;;;;;;2.69;100.00;101345.13;5029223;28;20045;-69
2022/01/06 06:35:35;;;;;;;25.70;5.63;;;;;;;2.69;100.00;101348.66;5046096;28;20704;-69
2022/01/06 06:38:01;;;;;;;19.92;4.10;;;;;;;2.69;100.00;101353.31;5037881;28;20125;-70
2022/01/06 06:40:28;;;;;;;17.40;3.72;;;;;;;2.66;100.00;101352.03;5039043;28;20136;-69
2022/01/06 06:42:54;;;;;;;22.83;4.20;;;;;;;2.67;100.00;101350.13;5034761;28;20052;-69
2022/01/06 06:45:23;;;;;;;19.42;4.50;;;;;;;2.66;100.00;101345.75;5040201;28;20053;-70
2022/01/06 06:47:51;;;;;;;16.20;4.28;;;;;;;2.63;100.00;101349.16;5045676;28;20131;-70
2022/01/06 06:50:21;;;;;;;27.00;5.05;;;;;;;2.72;100.00;101374.50;5039069;28;20061;-69
2022/01/06 06:52:48;;;;;;;26.35;5.55;;;;;;;2.76;100.00;101367.25;5044544;28;20102;-70
2022/01/06 06:55:14;;;;;;;21.67;4.28;;;;;;;2.75;100.00;101376.59;5028279;28;20142;-69
2022/01/06 06:57:41;;;;;;;23.77;4.40;;;;;;;2.67;100.00;101380.19;5050209;28;20115;-67
2022/01/06 07:00:09;;;;;;;20.52;5.10;;;;;;;2.64;100.00;101391.75;5031977;28;20094;-69
2022/01/06 07:02:36;;;;;;;22.67;4.97;;;;;;;2.64;100.00;101391.75;5042774;28;20572;-69
2022/01/06 07:05:04;;;;;;;21.58;4.22;;;;;;;2.62;100.00;101396.75;5039393;28;20404;-69
2022/01/06 07:07:31;;;;;;;27.05;5.18;;;;;;;2.61;100.00;101398.66;5040209;28;20107;-70
2022/01/06 07:09:57;;;;;;;20.63;4.65;;;;;;;2.64;100.00;101410.88;5046634;28;20111;-69
2022/01/06 07:12:24;;;;;;;27.38;5.10;;;;;;;2.64;100.00;101408.16;5044770;28;20115;-69
2022/01/06 07:14:51;;;;;;;27.33;4.07;;;;;;;2.61;100.00;101412.31;5040208;28;20049;-69
2022/01/06 07:17:18;;;;;;;24.45;4.90;;;;;;;2.63;100.00;101418.28;5051055;28;20136;-70
2022/01/06 07:19:44;;;;;;;26.77;5.30;;;;;;;2.61;100.00;101419.72;5051082;28;20135;-70
2022/01/06 07:22:11;;;;;;;25.45;5.38;;;;;;;2.56;100.00;101420.72;5047143;28;20266;-70
2022/01/06 07:24:37;;;;;;;24.35;4.82;;;;;;;2.59;100.00;101424.72;5056148;28;20055;-69
2022/01/06 07:27:05;;;;;;;25.50;4.70;;;;;;;2.54;100.00;101428.41;5048535;28;20041;-70
2022/01/06 07:29:32;;;;;;;34.03;5.15;;;;;;;2.52;100.00;101436.16;5045442;28;20505;-69
2022/01/06 07:31:58;;;;;;;19.77;5.03;;;;;;;2.55;100.00;101440.97;5047732;28;20049;-69
2022/01/06 07:34:25;;;;;;;19.20;4.57;;;;;;;2.53;100.00;101445.13;5035748;28;20560;-69
2022/01/06 07:36:52;;;;;;;17.45;5.28;;;;;;;2.53;100.00;101450.59;5044063;28;20497;-69
2022/01/06 07:39:18;;;;;;;24.27;4.82;;;;;;;2.52;100.00;101460.75;5039888;28;20514;-71
2022/01/06 07:41:45;;;;;;;22.52;6.40;;;;;;;2.48;100.00;101456.25;5036670;28;20163;-72
2022/01/06 07:44:11;;;;;;;21.40;5.50;;;;;;;2.48;100.00;101467.16;5041493;28;20053;-71
2022/01/06 07:46:40;;;;;;;24.77;5.85;;;;;;;2.45;100.00;101471.38;5046656;28;20128;-73
2022/01/06 07:49:07;;;;;;;31.98;5.90;;;;;;;2.38;100.00;101471.06;5044123;28;20049;-72
2022/01/06 07:51:33;;;;;;;26.77;6.30;;;;;;;2.35;100.00;101476.34;5041684;28;20052;-69
2022/01/06 07:54:00;;;;;;;29.85;7.28;;;;;;;2.37;100.00;101474.91;5049984;28;20128;-70
2022/01/06 07:56:27;;;;;;;21.17;5.63;;;;;;;2.31;100.00;101475.41;5044943;28;20056;-73
2022/01/06 07:58:54;;;;;;;27.45;6.20;;;;;;;2.22;100.00;101483.59;5036713;28;20049;-75
2022/01/06 08:01:21;;;;;;;20.88;7.55;;;;;;;2.12;100.00;101483.94;5044439;28;20045;-74
2022/01/06 08:03:48;;;;;;;23.33;7.78;;;;;;;2.10;100.00;101477.97;5048243;28;20037;-74
2022/01/06 08:06:15;;;;;;;35.38;8.02;;;;;;;2.06;100.00;101485.22;5046863;28;20393;-74
2022/01/06 08:08:42;;;;;;;24.05;7.55;;;;;;;2.09;100.00;101487.31;5048370;28;20502;-73
2022/01/06 08:11:10;;;;;;;24.27;7.18;;;;;;;2.12;100.00;101488.56;5054574;28;20059;-74
2022/01/06 08:13:37;;;;;;;32.35;8.60;;;;;;;2.12;100.00;101480.38;5044047;28;20109;-71
2022/01/06 08:16:05;;;;;;;26.60;8.15;;;;;;;2.15;100.00;101499.66;5047713;28;20135;-73
2022/01/06 08:18:31;;;;;;;33.00;9.98;;;;;;;2.09;100.00;101500.13;5047974;28;20053;-73
2022/01/06 08:20:58;;;;;;;34.95;11.68;;;;;;;2.07;100.00;101507.88;5039494;28;20389;-72
2022/01/06 08:23:25;;;;;;;28.90;8.05;;;;;;;2.04;100.00;101508.50;5043924;28;20071;-74
2022/01/06 08:25:52;;;;;;;18.52;6.53;;;;;;;2.00;100.00;101516.50;5050000;28;20539;-73
2022/01/06 08:28:18;;;;;;;26.65;7.85;;;;;;;2.07;100.00;101516.06;5047392;28;20132;-73
2022/01/06 08:30:45;;;;;;;24.33;5.90;;;;;;;2.10;100.00;101518.94;5037623;28;20081;-73
2022/01/06 08:33:12;;;;;;;28.13;6.68;;;;;;;2.18;100.00;101522.78;5042101;28;20049;-73
2022/01/06 08:35:39;;;;;;;28.58;7.53;;;;;;;2.19;100.00;101527.13;5039469;28;20832;-74
2022/01/06 08:38:05;;;;;;;26.63;6.97;;;;;;;2.20;100.00;101526.00;5049828;28;20045;-73
2022/01/06 08:40:32;;;;;;;28.08;6.28;;;;;;;2.23;100.00;101528.09;5041913;28;20641;-74
2022/01/06 08:42:59;;;;;;;24.27;6.72;;;;;;;2.24;100.00;101527.78;5044895;28;20052;-74
2022/01/06 08:45:25;;;;;;;27.75;6.70;;;;;;;2.30;100.00;101531.16;5038195;28;20135;-73
2022/01/06 08:47:52;;;;;;;30.52;6.50;;;;;;;2.33;100.00;101528.56;5040376;28;20145;-73
2022/01/06 08:50:22;;;;;;;25.75;6.55;;;;;;;2.37;100.00;101534.97;5044919;28;20103;-76
2022/01/06 08:52:50;;;;;;;24.80;6.68;;;;;;;2.43;100.00;101536.44;5041307;28;20088;-75
2022/01/06 08:55:17;;;;;;;24.00;5.55;;;;;;;2.45;100.00;101538.84;5040012;28;20049;-74
2022/01/06 08:57:44;;;;;;;25.27;7.40;;;;;;;2.52;100.00;101536.41;5047803;28;20051;-71
2022/01/06 09:00:14;;;;;;;26.65;7.05;;;;;;;2.58;100.00;101537.84;5042068;28;20124;-74
2022/01/06 09:02:41;;;;;;;24.23;6.50;;;;;;;2.63;100.00;101532.22;5037383;28;20442;-74
2022/01/06 09:05:10;;;;;;;25.45;6.82;;;;;;;2.69;100.00;101539.94;5039411;28;20041;-73
2022/01/06 09:07:37;;;;;;;35.35;9.18;;;;;;;2.73;100.00;101537.34;5028427;28;20171;-74
2022/01/06 09:10:04;;;;;;;23.48;7.57;;;;;;;2.80;100.00;101551.31;5031226;28;20053;-74
2022/01/06 09:12:31;;;;;;;28.30;10.60;;;;;;;2.85;100.00;101556.63;5024906;28;20126;-75
2022/01/06 09:14:57;;;;;;;36.35;10.20;;;;;;;2.91;100.00;101555.31;5050320;28;20417;-73
2022/01/06 09:17:24;;;;;;;11.25;4.28;;;;;;;2.94;100.00;101554.66;5035663;28;20095;-76
2022/01/06 09:19:50;;;;;;;25.00;7.03;;;;;;;3.03;100.00;101552.69;5035562;28;20085;-75
2022/01/06 09:22:17;;;;;;;31.10;7.25;;;;;;;3.11;100.00;101560.09;5043254;28;20075;-74
2022/01/06 09:24:44;;;;;;;3.85;1.88;;;;;;;3.01;100.00;101538.56;5042667;28;20120;-74
2022/01/06 09:27:10;;;;;;;29.48;7.85;;;;;;;3.29;100.00;101560.81;5049789;28;20493;-74
2022/01/06 09:29:37;;;;;;;29.75;7.25;;;;;;;3.37;100.00;101563.50;5037556;28;20071;-76
2022/01/06 09:32:05;;;;;;;29.45;7.22;;;;;;;3.33;100.00;101540.69;5032324;28;20049;-75
2022/01/06 09:34:32;;;;;;;35.40;8.70;;;;;;;3.56;100.00;101565.81;5040648;28;20122;-74
2022/01/06 09:36:58;;;;;;;14.07;5.68;;;;;;;3.58;100.00;101564.34;5036275;28;20083;-72
2022/01/06 09:39:25;;;;;;;24.88;6.55;;;;;;;3.67;100.00;101573.34;5043801;28;20509;-74
2022/01/06 09:41:51;;;;;;;29.33;7.25;;;;;;;3.79;100.00;101565.22;5033770;28;20059;-73
2022/01/06 09:44:19;;;;;;;19.88;6.53;;;;;;;3.85;100.00;101563.88;5032439;28;20045;-73
2022/01/06 09:47:02;;;;;;;21.17;6.18;;;;;;;3.93;100.00;101562.22;5033055;28;20509;-72
2022/01/06 09:49:29;;;;;;;20.10;6.00;;;;;;;3.97;100.00;101569.44;5030869;28;20045;-73
2022/01/06 09:51:56;;;;;;;39.00;7.90;;;;;;;4.10;100.00;101567.59;5039042;28;20088;-73
2022/01/06 09:54:23;;;;;;;30.85;7.82;;;;;;;4.20;100.00;101572.66;5046266;28;20452;-72
2022/01/06 09:56:49;;;;;;;19.15;4.15;;;;;;;4.21;100.00;101577.81;5036631;28;20121;-73
2022/01/06 09:59:16;;;;;;;21.00;5.93;;;;;;;4.34;100.00;101581.41;5046329;28;20529;-71
2022/01/06 10:01:42;;;;;;;32.88;8.05;;;;;;;4.47;100.00;101577.59;5044027;28;20136;-72
2022/01/06 10:04:21;;;;;;;37.90;9.05;;;;;;;4.62;100.00;101572.31;5040228;28;20080;-72
2022/01/06 10:07:05;;;;;;;12.02;4.78;;;;;;;4.54;100.00;101551.28;5046015;28;20517;-72
2022/01/06 10:09:34;;;;;;;23.40;6.82;;;;;;;4.75;100.00;101559.44;5037197;28;20734;-71
2022/01/06 10:12:06;;;;;;;23.30;7.03;;;;;;;4.88;100.00;101572.88;5039066;28;20530;-72
2022/01/06 10:14:45;;;;;;;23.85;6.32;;;;;;;4.93;100.00;101578.13;5044771;28;20147;-73
2022/01/06 10:17:14;;;;;;;35.67;8.35;;;;;;;5.04;100.00;101576.53;5040696;28;20103;-71
2022/01/06 10:19:43;;;;;;;26.77;6.90;;;;;;;5.15;100.00;101574.97;5031636;28;20144;-73
2022/01/06 10:22:15;;;;;;;11.30;3.60;;;;;;;5.18;100.00;101568.81;5043793;28;20084;-72
2022/01/06 10:24:44;;;;;;;29.02;7.78;;;;;;;5.38;100.00;101567.94;5047810;28;20090;-73
2022/01/06 10:27:14;;;;;;;29.40;8.02;;;;;;;5.50;100.00;101563.59;5047458;28;20080;-72
2022/01/06 10:29:46;;;;;;;14.02;4.53;;;;;;;5.55;100.00;101563.34;5034752;28;20144;-72
2022/01/06 10:32:18;;;;;;;22.05;5.95;;;;;;;5.61;100.00;101562.78;5027637;28;20071;-70
2022/01/06 10:34:49;;;;;;;18.02;5.50;;;;;;;5.72;100.00;101569.41;5038447;28;20477;-73
2022/01/06 10:37:41;;;;;;;23.20;5.53;;;;;;;5.92;100.00;101562.22;5029840;28;20057;-75
2022/01/06 10:40:12;;;;;;;3.78;2.10;;;;;;;6.02;100.00;101567.25;5029765;28;20057;-75
2022/01/06 10:42:41;;;;;;;27.77;7.25;;;;;;;6.22;100.00;101564.34;5032575;28;20073;-73
2022/01/06 10:45:15;;;;;;;24.98;6.35;;;;;;;6.30;100.00;101562.59;5037696;28;20057;-73
2022/01/06 10:47:44;;;;;;;12.23;4.10;;;;;;;6.44;100.00;101565.75;5030898;28;20156;-74
2022/01/06 10:50:15;;;;;;;8.60;2.15;;;;;;;6.51;100.00;101575.00;5038599;28;20591;-74
2022/01/06 10:52:51;;;;;;;14.70;2.90;;;;;;;6.64;100.00;101575.75;5045829;28;20118;-73
2022/01/06 10:55:26;;;;;;;4.70;2.35;;;;;;;6.90;100.00;101570.59;5054431;28;20617;-76
2022/01/06 10:57:59;;;;;;;25.90;6.53;;;;;;;7.41;100.00;101572.34;5043503;28;20056;-75
2022/01/06 11:00:30;;;;;;;34.25;6.88;;;;;;;8.69;100.00;101567.41;5038305;28;20138;-75
2022/01/06 11:03:09;;;;;;;25.85;5.60;;;;;;;11.16;90.87;101572.75;5041365;28;20059;-74
2022/01/06 11:05:38;;;;;;;12.15;3.70;;;;;;;12.20;70.99;101575.59;5043320;28;20476;-74
2022/01/06 11:08:05;;;;;;;18.63;5.30;;;;;;;12.53;69.70;101569.81;5042070;28;20065;-77
2022/01/06 11:10:37;;;;;;;24.83;5.72;;;;;;;13.63;63.34;101551.44;5047925;28;20140;-75
2022/01/06 11:13:06;;;;;;;11.98;3.40;;;;;;;13.98;58.14;101562.53;5041108;28;20126;-73
2022/01/06 11:15:33;;;;;;;18.65;5.78;;;;;;;14.43;56.11;101558.84;5039139;28;20049;-75
2022/01/06 11:18:01;;;;;;;8.38;3.08;;;;;;;13.80;54.96;101553.41;5038580;28;20064;-73
2022/01/06 11:20:28;;;;;;;30.67;6.35;;;;;;;14.86;60.27;101561.06;5048941;28;20506;-75
2022/01/06 11:22:57;;;;;;;17.38;4.82;;;;;;;15.59;51.25;101569.38;5035826;28;20492;-74
2022/01/06 11:25:36;;;;;;;18.00;4.65;;;;;;;15.87;50.23;101569.91;5036987;28;21351;-74
2022/01/06 11:28:11;;;;;;;12.07;3.63;;;;;;;15.87;47.68;101569.09;5032236;28;20160;-75